Flight Track Log - Related Links

Times and Time Zones

All times are in EDT time to prevent confusion due to time zone crossing. See the N700QA flight status page for this flight to view local times or setup timezone preferences in your user account.

Time Position Orientation Groundspeed Altitude Reporting Facility
EDT Latitude Longitude Course Direction KTS MPH feet Rate Location/Type
Thu 08:34:54 AM 33.9156 -118.4578 North 178 205 2,600  Level Los Angeles Center
Thu 08:35:54 AM 33.8728 -118.5069 224° Southwest 214 246 4,700 1,983 Climbing Los Angeles Center
Thu 08:36:55 AM 33.8225 -118.5278 199° South 235 270 6,600 2,033 Climbing Los Angeles Center
Thu 08:37:55 AM 33.7414 -118.5144 172° South 251 289 8,800 2,050 Climbing Los Angeles Center
Thu 08:38:55 AM 33.6883 -118.4561 138° Southeast 271 312 10,700 1,835 Climbing Los Angeles Center
Thu 08:39:56 AM 33.6689 -118.3706 105° East 285 328 12,500 1,736 Climbing Los Angeles Center
Thu 08:40:00 AM 34.0289 -117.8167 North  Level FlightAware Approximate
Thu 08:40:56 AM 33.7022 -118.2808 66° East 302 348 14,200  Level Los Angeles Center
Thu 08:41:57 AM 33.7356 -118.1886 66° East 308 354 15,900 1,686 Climbing Los Angeles Center
Thu 08:42:57 AM 33.7703 -118.0944 66° East 310 357 17,600 1,400 Climbing Los Angeles Center
Thu 08:43:57 AM 33.8275 -118.0183 48° Northeast 317 365 18,700 1,140 Climbing Los Angeles Center
Thu 08:44:58 AM 33.9003 -117.9533 37° Northeast 327 376 19,900 1,289 Climbing Los Angeles Center
Thu 08:45:58 AM 33.9739 -117.8842 38° Northeast 333 383 21,300 1,190 Climbing Los Angeles Center
Thu 08:46:59 AM 34.0506 -117.8158 36° Northeast 340 391 22,300 893 Climbing Los Angeles Center
Thu 08:47:59 AM 34.1233 -117.7350 43° Northeast 357 411 23,100 950 Climbing Los Angeles Center
Thu 08:48:59 AM 34.1900 -117.6450 48° Northeast 357 411 24,200 942 Climbing Los Angeles Center
Thu 08:50:00 AM 34.2714 -117.5333 49° Northeast 367 422 25,000 893 Climbing Los Angeles Center
Thu 08:51:00 AM 34.3408 -117.4403 48° Northeast 373 429 26,000 843 Climbing Los Angeles Center
Thu 08:52:01 AM 34.3981 -117.3611 49° Northeast 370 426 26,700 694 Climbing Los Angeles Center
Thu 08:53:01 AM 34.4678 -117.2644 49° Northeast 381 438 27,400 645 Climbing Los Angeles Center
Thu 08:54:02 AM 34.5375 -117.1686 49° Northeast 382 440 28,000 645 Climbing Los Angeles Center
Thu 08:55:02 AM 34.6081 -117.0717 48° Northeast 385 443 28,700 645 Climbing Los Angeles Center
Thu 08:56:03 AM 34.6939 -116.9531 49° Northeast 391 450 29,300 595 Climbing Los Angeles Center
Thu 08:57:03 AM 34.7656 -116.8531 49° Northeast 394 453 29,900 446 Climbing Los Angeles Center
Thu 08:58:04 AM 34.8378 -116.7528 49° Northeast 396 456 30,200 347 Climbing Los Angeles Center
Thu 08:59:04 AM 34.9114 -116.6497 49° Northeast 402 463 30,600 397 Climbing Los Angeles Center
Thu 09:00:05 AM 34.9861 -116.5458 49° Northeast 408 470 31,000 496 Climbing Los Angeles Center
Thu 09:01:05 AM 35.0661 -116.4472 45° Northeast 410 472 31,600 496 Climbing Los Angeles Center
Thu 09:02:06 AM 35.1467 -116.3503 45° Northeast 409 471 32,000 443 Climbing Los Angeles Center
Thu 09:03:07 AM 35.2264 -116.2506 46° Northeast 410 472 32,500 545 Climbing Los Angeles Center
Thu 09:04:07 AM 35.3039 -116.1508 46° Northeast 408 470 33,100 496 Climbing Los Angeles Center
Thu 09:05:08 AM 35.3806 -116.0528 46° Northeast 401 461 33,500 443 Climbing Los Angeles Center
Thu 09:06:09 AM 35.4586 -115.9556 45° Northeast 401 461 34,000 496 Climbing Los Angeles Center
Thu 09:07:09 AM 35.5500 -115.8428 45° Northeast 398 458 34,500 397 Climbing Los Angeles Center
Thu 09:08:10 AM 35.6264 -115.7456 46° Northeast 396 456 34,800 246 Climbing Los Angeles Center
Thu 09:09:11 AM 35.7036 -115.6478 46° Northeast 398 458 35,000 98 Climbing Los Angeles Center
Thu 09:10:12 AM 35.7806 -115.5478 47° Northeast 402 463 35,000 49 Level Los Angeles Center
Thu 09:11:13 AM 35.8586 -115.4456 47° Northeast 408 470 35,100 50 Climbing Los Angeles Center
Thu 09:12:13 AM 35.9392 -115.3419 46° Northeast 415 478 35,100  Level Los Angeles Center
Thu 09:13:14 AM 36.0203 -115.2383 46° Northeast 421 484 35,100  Level Los Angeles Center
Thu 09:14:15 AM 36.1017 -115.1325 46° Northeast 427 491 35,100  Level Los Angeles Center
Thu 09:15:16 AM 36.1864 -115.0272 45° Northeast 433 498 35,100  Level Los Angeles Center
Thu 09:16:17 AM 36.2694 -114.9208 46° Northeast 433 498 35,100 -49 Level Los Angeles Center
Thu 09:17:18 AM 36.3536 -114.8131 46° Northeast 436 502 35,000  Descending Los Angeles Center
Thu 09:18:19 AM 36.4544 -114.6819 46° Northeast 439 505 35,100 49 Climbing Los Angeles Center
Thu 09:19:20 AM 36.5378 -114.5728 46° Northeast 437 503 35,100 -49 Level Los Angeles Center
Thu 09:20:21 AM 36.6217 -114.4642 46° Northeast 436 502 35,000 -49 Descending Los Angeles Center
Thu 09:21:22 AM 36.7044 -114.3539 47° Northeast 437 503 35,000 49 Level Los Angeles Center
Thu 09:22:23 AM 36.7692 -114.2636 48° Northeast 437 503 35,100 49 Climbing Los Angeles Center
Thu 09:23:24 AM 36.8419 -114.1097 59° Northeast 430 495 35,100 -49 Level Los Angeles Center
Thu 09:24:25 AM 36.9044 -113.9831 58° Northeast 429 494 35,000  Descending Los Angeles Center
Thu 09:25:26 AM 36.9697 -113.8486 59° Northeast 432 497 35,100 49 Climbing Los Angeles Center
Thu 09:26:27 AM 37.0314 -113.7194 59° Northeast 433 498 35,100  Level Los Angeles Center
Thu 09:27:28 AM 37.0917 -113.5900 60° Northeast 431 496 35,100 -49 Level Los Angeles Center
Thu 09:28:29 AM 37.1408 -113.4881 59° Northeast 430 495 35,000 -49 Descending Los Angeles Center
Thu 09:29:31 AM 37.2133 -113.3331 60° Northeast 430 495 35,000  Level Los Angeles Center
Thu 09:30:32 AM 37.2611 -113.2314 59° Northeast 427 491 35,000 49 Level Los Angeles Center
Thu 09:31:33 AM 37.3456 -113.0522 59° Northeast 428 493 35,100  Climbing Los Angeles Center
Thu 09:32:35 AM 37.4044 -112.9239 60° Northeast 429 494 35,000 -53 Descending Los Angeles Center
Thu 09:33:26 AM 37.4503 -112.8211 61° Northeast 430 495 35,000  Level Salt Lake Center
Thu 09:34:27 AM 37.5106 -112.6928 59° Northeast 434 499 35,000  Level Salt Lake Center
Thu 09:35:28 AM 37.5708 -112.5658 59° Northeast 432 497 35,000  Level Salt Lake Center
Thu 09:36:30 AM 37.6419 -112.4106 60° Northeast 430 495 35,000  Level Salt Lake Center
Thu 09:37:31 AM 37.7022 -112.2803 60° Northeast 432 497 35,000  Level Salt Lake Center
Thu 09:38:33 AM 37.7639 -112.1500 59° Northeast 433 498 35,000  Level Salt Lake Center
Thu 09:39:34 AM 37.8253 -112.0183 59° Northeast 435 501 35,000  Level Salt Lake Center
Thu 09:40:35 AM 37.8856 -111.8858 60° Northeast 436 502 35,000  Level Salt Lake Center
Thu 09:41:37 AM 37.9475 -111.7531 59° Northeast 439 505 35,000  Level Salt Lake Center
Thu 09:42:38 AM 38.0089 -111.6194 60° Northeast 439 505 35,000  Level Salt Lake Center
Thu 09:43:40 AM 38.0700 -111.4844 60° Northeast 441 507 35,000 48 Level Salt Lake Center
Thu 09:44:42 AM 38.1439 -111.3225 60° Northeast 443 510 35,100 49 Climbing Salt Lake Center
Thu 09:45:43 AM 38.2047 -111.1869 60° Northeast 442 509 35,100  Level Salt Lake Center
Thu 09:46:45 AM 38.2658 -111.0519 60° Northeast 442 509 35,100  Level Salt Lake Center
Thu 09:47:46 AM 38.3231 -110.9242 60° Northeast 439 505 35,100  Level Salt Lake Center
Thu 09:48:48 AM 38.3889 -110.7725 61° Northeast 439 505 35,100 -48 Level Salt Lake Center
Thu 09:49:50 AM 38.4456 -110.6419 61° Northeast 439 505 35,000  Descending Salt Lake Center
Thu 09:50:51 AM 38.4978 -110.4811 67° East 440 506 35,100  Climbing Salt Lake Center
Thu 09:51:53 AM 38.5436 -110.3444 67° East 439 505 35,000  Descending Salt Lake Center
Thu 09:52:55 AM 38.5944 -110.1833 68° East 439 505 35,100  Climbing Salt Lake Center
Thu 09:53:57 AM 38.6203 -110.0392 77° East 436 502 35,000 -585 Descending Salt Lake Center
Thu 09:54:58 AM 38.6461 -109.8914 77° East 442 509 33,900 -878 Descending Salt Lake Center
Thu 09:56:00 AM 38.6803 -109.7172 76° East 451 519 33,200 -435 Descending Salt Lake Center
Thu 09:57:02 AM 38.7069 -109.5733 77° East 439 505 33,000 -97 Descending Salt Lake Center
Thu 09:58:04 AM 38.7372 -109.4114 76° East 424 488 33,000  Level Salt Lake Center
Thu 09:59:05 AM 38.7611 -109.2756 77° East 414 476 33,000  Level Salt Lake Center
Thu 10:00:07 AM 38.7911 -109.1175 76° East 410 472 33,000  Level Salt Lake Center
Thu 10:01:09 AM 38.8144 -108.9817 78° East 409 471 33,000  Level Salt Lake Center
Thu 10:02:11 AM 38.8428 -108.8214 77° East 412 474 33,000  Level Salt Lake Center
Thu 10:03:12 AM 38.8675 -108.6828 77° East 417 480 33,000 -118 Level Salt Lake Center
Thu 10:04:43 AM 38.9069 -108.4492 78° East 417 480 32,700 -945 Descending Denver Center
Thu 10:05:57 AM 38.9381 -108.2792 77° East 441 507 30,400 -1,941 Descending Denver Center
Thu 10:06:59 AM 38.9703 -108.1019 77° East 456 525 28,300 -1,887 Descending Denver Center
Thu 10:08:01 AM 38.9953 -107.9531 78° East 448 516 26,500 -1,984 Descending Denver Center
Thu 10:09:03 AM 39.0247 -107.7869 77° East 433 498 24,200 -2,032 Descending Denver Center
Thu 10:10:05 AM 39.0481 -107.6483 78° East 421 484 22,300 -1,854 Descending Denver Center
Thu 10:11:06 AM 39.0744 -107.4922 78° East 405 466 20,400 -1,122 Descending Denver Center
Thu 10:12:08 AM 39.0947 -107.3686 78° East 379 436 20,000 -194 Descending Denver Center
Thu 10:13:10 AM 39.1478 -107.2581 58° Northeast 338 389 20,000 -48 Level Denver Center
Thu 10:14:12 AM 39.2061 -107.1889 43° Northeast 339 390 19,900 -629 Descending Denver Center
Thu 10:15:14 AM 39.2925 -107.1214 31° Northeast 304 350 18,700 -1,065 Descending Denver Center
Thu 10:16:16 AM 39.3658 -107.1550 340° North 281 323 17,700 -677 Descending Denver Center
Thu 10:17:18 AM 39.4289 -107.1958 333° Northwest 271 312 17,300 -339 Descending Denver Center
Thu 10:18:20 AM 39.5125 -107.1814 North 285 328 17,000 -339 Descending Denver Center
Thu 10:19:22 AM 39.5786 -107.1439 24° Northeast 274 315 16,600 -435 Descending Denver Center
Thu 10:20:24 AM 39.5828 -107.0447 87° East 255 293 16,100 -290 Descending Denver Center
Thu 10:21:26 AM 39.5242 -107.0178 160° South 238 274 16,000 -290 Descending Denver Center
Thu 10:22:28 AM 39.4558 -106.9903 163° South 231 266 15,500 -1,016 Descending Denver Center
Thu 10:23:30 AM 39.3919 -106.9872 178° South 226 260 13,900 -1,887 Descending Denver Center
Thu 10:24:32 AM 39.3422 -106.9578 155° Southeast 205 236 11,600 -1,935 Descending Denver Center
Thu 10:25:34 AM 39.3078 -106.9261 145° Southeast 199 229 9,900 -1,500 Descending Denver Center
Thu 10:26:36 AM 39.2589 -106.8789 143° Southeast 186 214 8,500 -1,355 Descending Denver Center

Login

Don't have an account? Register now (free) for customized features, flight alerts, and more!